Time;durP1;ratioP1;P1;durP2;ratioP2;P2;SDS_P1;SDS_P2;PMS_P1;PMS_P2;Temp;Humidity;BMP_temperature;BMP_pressure;BME280_temperature;BME280_humidity;BME280_pressure;Samples;Min_cycle;Max_cycle;Signal;HPM_P1;HPM_P2
2021/10/11 00:00:44;;;;;;;74.03;24.80;;;;;;;;;;4991756;28;20462;-81
2021/10/11 00:03:10;;;;;;;45.85;18.23;;;;;;;;;;4990520;28;20022;-80
2021/10/11 00:05:35;;;;;;;31.90;15.55;;;;;;;;;;4998515;28;20038;-80
2021/10/11 00:08:03;;;;;;;29.38;15.18;;;;;;;;;;4992691;28;20033;-80
2021/10/11 00:10:29;;;;;;;29.27;14.38;;;;;;;;;;4998557;28;20030;-80
2021/10/11 00:12:56;;;;;;;29.45;15.18;;;;;;;;;;4991631;28;20498;-79
2021/10/11 00:15:24;;;;;;;28.48;13.98;;;;;;;;;;4994182;28;20061;-80
2021/10/11 00:17:50;;;;;;;32.17;14.02;;;;;;;;;;4994829;28;20018;-79
2021/10/11 00:20:17;;;;;;;28.88;13.82;;;;;;;;;;4983685;28;20037;-80
2021/10/11 00:22:45;;;;;;;27.67;13.82;;;;;;;;;;4995093;28;20045;-80
2021/10/11 00:25:11;;;;;;;29.48;13.02;;;;;;;;;;4993730;28;20034;-81
2021/10/11 00:27:36;;;;;;;29.73;14.30;;;;;;;;;;4989933;28;20038;-80
2021/10/11 00:30:05;;;;;;;30.55;13.77;;;;;;;;;;4993160;28;20072;-80
2021/10/11 00:32:32;;;;;;;31.00;14.00;;;;;;;;;;4993268;28;20054;-80
2021/10/11 00:34:58;;;;;;;31.23;14.00;;;;;;;;;;4991365;28;20029;-80
2021/10/11 00:37:23;;;;;;;28.88;14.55;;;;;;;;;;4994783;28;20100;-79
2021/10/11 00:39:49;;;;;;;30.38;13.90;;;;;;;;;;4977115;28;20026;-80
2021/10/11 00:42:14;;;;;;;31.35;14.68;;;;;;;;;;4984756;28;20022;-80
2021/10/11 00:44:40;;;;;;;33.03;15.48;;;;;;;;;;4980011;28;20026;-81
2021/10/11 00:47:05;;;;;;;30.98;14.02;;;;;;;;;;4976167;28;20117;-80
2021/10/11 00:49:30;;;;;;;31.88;14.60;;;;;;;;;;4978333;28;20478;-79
2021/10/11 00:51:56;;;;;;;35.10;15.18;;;;;;;;;;4997877;28;20034;-80
2021/10/11 00:54:26;;;;;;;31.85;15.48;;;;;;;;;;4979141;28;20481;-80
2021/10/11 00:56:51;;;;;;;30.88;13.93;;;;;;;;;;4997305;28;20043;-80
2021/10/11 00:59:19;;;;;;;31.73;14.40;;;;;;;;;;4980164;28;20041;-80
2021/10/11 01:01:45;;;;;;;30.35;13.98;;;;;;;;;;4978139;28;20482;-80
2021/10/11 01:04:10;;;;;;;35.47;14.98;;;;;;;;;;4979303;28;20041;-80
2021/10/11 01:06:41;;;;;;;34.45;13.68;;;;;;;;;;4977349;28;20038;-80
2021/10/11 01:09:08;;;;;;;35.72;14.60;;;;;;;;;;4998215;28;20045;-81
2021/10/11 01:11:34;;;;;;;35.03;14.50;;;;;;;;;;4995798;28;20033;-80
2021/10/11 01:14:00;;;;;;;33.92;14.63;;;;;;;;;;4994484;28;20038;-80
2021/10/11 01:16:28;;;;;;;32.42;14.15;;;;;;;;;;4992622;28;20038;-80
2021/10/11 01:18:54;;;;;;;33.28;14.75;;;;;;;;;;4991816;28;20403;-80
2021/10/11 01:21:20;;;;;;;35.60;15.07;;;;;;;;;;4990511;28;20035;-80
2021/10/11 01:23:45;;;;;;;32.35;14.60;;;;;;;;;;4995210;28;20125;-80
2021/10/11 01:26:13;;;;;;;30.63;13.88;;;;;;;;;;4993745;28;20081;-81
2021/10/11 01:28:38;;;;;;;34.80;15.02;;;;;;;;;;4991962;28;20026;-81
2021/10/11 01:31:04;;;;;;;34.25;15.35;;;;;;;;;;4991331;28;20022;-80
2021/10/11 01:33:29;;;;;;;33.90;15.48;;;;;;;;;;4992664;28;20038;-81
2021/10/11 01:35:55;;;;;;;35.42;17.00;;;;;;;;;;4977556;28;20030;-80
2021/10/11 01:38:23;;;;;;;35.42;15.88;;;;;;;;;;4976051;28;20041;-80
2021/10/11 01:40:49;;;;;;;32.13;14.77;;;;;;;;;;4995932;28;20030;-80
2021/10/11 01:43:14;;;;;;;30.92;15.02;;;;;;;;;;4979253;28;20508;-80
2021/10/11 01:45:44;;;;;;;37.45;15.07;;;;;;;;;;4995107;28;20605;-81
2021/10/11 01:48:12;;;;;;;38.10;15.82;;;;;;;;;;4988769;28;20034;-81
2021/10/11 01:50:37;;;;;;;36.80;16.48;;;;;;;;;;4978477;28;20122;-81
2021/10/11 01:53:03;;;;;;;33.10;15.77;;;;;;;;;;4977952;28;20046;-80
2021/10/11 01:55:28;;;;;;;33.50;15.35;;;;;;;;;;4995990;28;20025;-81
2021/10/11 01:57:53;;;;;;;36.00;15.55;;;;;;;;;;4979642;28;20062;-80
2021/10/11 02:00:19;;;;;;;36.60;15.25;;;;;;;;;;4992242;28;20029;-81
2021/10/11 02:02:44;;;;;;;33.47;15.90;;;;;;;;;;4976363;28;20033;-81
2021/10/11 02:05:11;;;;;;;36.83;15.15;;;;;;;;;;4992104;28;20030;-80
2021/10/11 02:07:36;;;;;;;39.53;16.30;;;;;;;;;;4991066;28;20080;-80
2021/10/11 02:10:04;;;;;;;33.17;15.52;;;;;;;;;;4992191;28;20030;-81
2021/10/11 02:12:29;;;;;;;33.72;14.98;;;;;;;;;;4973068;28;20417;-80
2021/10/11 02:14:55;;;;;;;35.78;15.63;;;;;;;;;;4993056;28;20018;-80
2021/10/11 02:17:21;;;;;;;30.50;14.88;;;;;;;;;;4989216;28;20529;-78
2021/10/11 02:19:46;;;;;;;33.92;14.95;;;;;;;;;;4992648;28;20124;-80
2021/10/11 02:22:11;;;;;;;34.17;14.35;;;;;;;;;;4991084;28;20062;-80
2021/10/11 02:24:37;;;;;;;32.75;16.00;;;;;;;;;;4988534;28;20097;-80
2021/10/11 02:27:03;;;;;;;30.60;14.43;;;;;;;;;;4978584;28;20108;-79
2021/10/11 02:29:28;;;;;;;28.83;13.05;;;;;;;;;;4994528;28;20027;-80
2021/10/11 02:32:00;;;;;;;34.20;14.27;;;;;;;;;;4990690;28;20486;-79
2021/10/11 02:34:25;;;;;;;33.25;14.48;;;;;;;;;;4994748;28;20026;-80
2021/10/11 02:36:51;;;;;;;31.33;14.52;;;;;;;;;;4991774;28;20030;-81
2021/10/11 02:39:17;;;;;;;31.80;14.15;;;;;;;;;;4994580;28;20092;-80
2021/10/11 02:41:42;;;;;;;33.50;14.73;;;;;;;;;;4972599;28;20022;-80
2021/10/11 02:44:08;;;;;;;31.08;13.77;;;;;;;;;;4992952;28;20038;-81
2021/10/11 02:46:33;;;;;;;34.78;14.10;;;;;;;;;;4991164;28;20109;-81
2021/10/11 02:48:59;;;;;;;33.30;14.63;;;;;;;;;;4995684;28;20496;-81
2021/10/11 02:51:25;;;;;;;37.65;15.18;;;;;;;;;;4994803;28;20136;-79
2021/10/11 02:53:50;;;;;;;31.27;14.95;;;;;;;;;;4978069;28;20021;-81
2021/10/11 02:56:17;;;;;;;31.75;14.48;;;;;;;;;;4995393;28;20047;-80
2021/10/11 02:58:43;;;;;;;35.05;14.68;;;;;;;;;;4994093;28;20032;-81
2021/10/11 03:01:08;;;;;;;34.35;15.30;;;;;;;;;;4996819;28;20025;-81
2021/10/11 03:03:33;;;;;;;29.95;14.75;;;;;;;;;;4977111;28;20497;-81
2021/10/11 03:05:59;;;;;;;32.35;14.82;;;;;;;;;;4994207;28;20034;-80
2021/10/11 03:08:27;;;;;;;33.25;14.35;;;;;;;;;;5002829;28;20026;-80
2021/10/11 03:10:52;;;;;;;32.63;14.82;;;;;;;;;;5006545;28;20037;-80
2021/10/11 03:13:19;;;;;;;37.22;15.25;;;;;;;;;;4995783;28;20457;-81
2021/10/11 03:15:47;;;;;;;34.13;14.60;;;;;;;;;;4993306;28;20505;-80
2021/10/11 03:18:13;;;;;;;29.20;13.60;;;;;;;;;;4979071;28;20042;-81
2021/10/11 03:20:38;;;;;;;34.30;14.20;;;;;;;;;;4991580;28;20056;-81
2021/10/11 03:23:03;;;;;;;31.25;14.07;;;;;;;;;;4997913;28;20381;-79
2021/10/11 03:25:29;;;;;;;29.20;14.23;;;;;;;;;;4998956;28;20542;-81
2021/10/11 03:27:54;;;;;;;33.03;13.77;;;;;;;;;;4991889;28;20102;-80
2021/10/11 03:30:20;;;;;;;29.30;13.45;;;;;;;;;;4992692;28;20117;-81
2021/10/11 03:32:45;;;;;;;34.60;13.48;;;;;;;;;;4993929;28;20088;-81
2021/10/11 03:35:10;;;;;;;34.15;13.95;;;;;;;;;;4978015;28;20478;-81
2021/10/11 03:37:36;;;;;;;31.55;14.20;;;;;;;;;;4994328;28;20557;-80
2021/10/11 03:40:01;;;;;;;26.10;12.68;;;;;;;;;;4996712;28;20397;-80
2021/10/11 03:42:27;;;;;;;31.63;13.70;;;;;;;;;;4996915;28;20613;-81
2021/10/11 03:44:52;;;;;;;25.23;12.43;;;;;;;;;;4997797;28;20100;-81
2021/10/11 03:47:20;;;;;;;26.80;12.82;;;;;;;;;;4999817;28;20108;-79
2021/10/11 03:49:46;;;;;;;35.60;13.68;;;;;;;;;;4978850;28;20030;-80
2021/10/11 03:52:11;;;;;;;35.75;15.60;;;;;;;;;;4997799;28;20030;-79
2021/10/11 03:54:36;;;;;;;35.40;13.90;;;;;;;;;;4997715;28;20039;-80
2021/10/11 03:57:02;;;;;;;34.92;13.93;;;;;;;;;;4991039;28;20031;-81
2021/10/11 03:59:28;;;;;;;28.50;13.30;;;;;;;;;;4995122;28;20026;-77
2021/10/11 04:01:53;;;;;;;32.47;13.77;;;;;;;;;;4995115;28;20034;-81
2021/10/11 04:04:20;;;;;;;29.65;13.23;;;;;;;;;;4997161;28;20028;-80
2021/10/11 04:06:46;;;;;;;29.27;13.55;;;;;;;;;;4993265;28;20038;-80
2021/10/11 04:09:13;;;;;;;35.38;14.38;;;;;;;;;;4980490;28;20030;-79
2021/10/11 04:11:38;;;;;;;34.00;15.48;;;;;;;;;;4992044;28;20053;-80
2021/10/11 04:14:06;;;;;;;37.30;16.20;;;;;;;;;;4994243;28;20478;-81
2021/10/11 04:16:31;;;;;;;34.85;14.82;;;;;;;;;;4992705;28;20476;-80
2021/10/11 04:18:57;;;;;;;35.90;15.27;;;;;;;;;;4978277;28;20042;-78
2021/10/11 04:21:27;;;;;;;33.95;15.40;;;;;;;;;;4977711;28;20347;-79
2021/10/11 04:23:52;;;;;;;36.08;16.38;;;;;;;;;;4992521;28;20031;-80
2021/10/11 04:26:18;;;;;;;34.20;15.38;;;;;;;;;;4994454;28;20160;-80
2021/10/11 04:28:45;;;;;;;39.10;17.75;;;;;;;;;;4976818;28;20346;-80
2021/10/11 04:31:11;;;;;;;36.28;16.77;;;;;;;;;;4976403;28;20454;-80
2021/10/11 04:33:36;;;;;;;35.67;16.80;;;;;;;;;;4996640;28;20037;-80
2021/10/11 04:36:02;;;;;;;41.22;15.77;;;;;;;;;;4996350;28;20521;-80
2021/10/11 04:38:27;;;;;;;34.58;15.82;;;;;;;;;;4995419;28;20183;-80
2021/10/11 04:40:53;;;;;;;36.55;15.95;;;;;;;;;;4996468;28;20137;-80
2021/10/11 04:43:18;;;;;;;36.67;16.75;;;;;;;;;;4983490;28;20018;-80
2021/10/11 04:45:46;;;;;;;38.92;17.08;;;;;;;;;;4978660;28;20379;-80
2021/10/11 04:48:12;;;;;;;54.88;23.23;;;;;;;;;;4978577;28;20076;-81
2021/10/11 04:50:38;;;;;;;49.88;19.23;;;;;;;;;;4993741;28;20039;-81
2021/10/11 04:53:05;;;;;;;51.38;19.42;;;;;;;;;;4995361;28;20034;-81
2021/10/11 04:55:31;;;;;;;40.90;17.20;;;;;;;;;;4994333;28;20493;-80
2021/10/11 04:57:57;;;;;;;41.50;17.48;;;;;;;;;;4982726;28;20042;-82
2021/10/11 05:00:23;;;;;;;44.40;19.38;;;;;;;;;;4997767;28;20037;-81
2021/10/11 05:02:51;;;;;;;48.97;21.55;;;;;;;;;;4996924;28;20030;-80
2021/10/11 05:05:16;;;;;;;49.95;23.42;;;;;;;;;;4998013;28;20053;-80
2021/10/11 05:07:42;;;;;;;44.80;21.27;;;;;;;;;;4997333;28;20062;-78
2021/10/11 05:10:08;;;;;;;43.30;19.52;;;;;;;;;;4994561;28;20030;-78
2021/10/11 05:12:34;;;;;;;45.53;21.15;;;;;;;;;;4976803;28;20057;-79
2021/10/11 05:14:59;;;;;;;46.33;20.52;;;;;;;;;;4984653;28;20488;-77
2021/10/11 05:17:27;;;;;;;46.70;21.63;;;;;;;;;;4993153;28;20041;-78
2021/10/11 05:19:52;;;;;;;59.08;24.80;;;;;;;;;;4983419;28;20482;-77
2021/10/11 05:22:18;;;;;;;57.75;24.45;;;;;;;;;;4983823;28;20096;-77
2021/10/11 05:24:44;;;;;;;49.33;21.23;;;;;;;;;;5000990;28;20036;-77
2021/10/11 05:27:09;;;;;;;47.28;21.90;;;;;;;;;;4980205;28;20113;-78
2021/10/11 05:29:37;;;;;;;45.40;20.98;;;;;;;;;;4979674;28;20794;-79
2021/10/11 05:32:04;;;;;;;50.75;21.10;;;;;;;;;;4997147;28;20330;-78
2021/10/11 05:34:30;;;;;;;53.28;22.70;;;;;;;;;;4992581;28;20029;-81
2021/10/11 05:36:56;;;;;;;73.88;29.83;;;;;;;;;;4978860;28;20038;-83
2021/10/11 05:39:26;;;;;;;48.83;23.65;;;;;;;;;;4977881;28;20468;-80
2021/10/11 05:41:54;;;;;;;61.63;25.27;;;;;;;;;;4993566;28;20022;-79
2021/10/11 05:44:19;;;;;;;52.00;22.63;;;;;;;;;;4980870;28;21051;-76
2021/10/11 05:46:45;;;;;;;57.97;24.90;;;;;;;;;;4995163;28;20441;-81
2021/10/11 05:49:11;;;;;;;44.83;20.33;;;;;;;;;;4974158;28;20174;-80
2021/10/11 05:51:36;;;;;;;44.90;19.65;;;;;;;;;;4991120;28;20092;-80
2021/10/11 05:54:02;;;;;;;39.30;18.92;;;;;;;;;;4971862;28;20031;-80
2021/10/11 05:56:27;;;;;;;47.63;20.60;;;;;;;;;;4978944;28;20419;-80
2021/10/11 05:58:53;;;;;;;41.95;18.33;;;;;;;;;;4989160;28;20710;-82
2021/10/11 06:01:18;;;;;;;46.58;20.60;;;;;;;;;;4993400;28;20513;-80
2021/10/11 06:03:44;;;;;;;43.80;20.08;;;;;;;;;;4991857;28;20057;-79
2021/10/11 06:06:09;;;;;;;39.63;17.55;;;;;;;;;;4990266;28;20030;-79
2021/10/11 06:08:37;;;;;;;41.72;19.77;;;;;;;;;;4996444;28;20494;-79
2021/10/11 06:11:02;;;;;;;57.05;24.15;;;;;;;;;;4991296;28;20030;-80
2021/10/11 06:13:28;;;;;;;62.40;27.60;;;;;;;;;;4991206;28;20465;-80
2021/10/11 06:15:53;;;;;;;74.40;29.85;;;;;;;;;;4987170;28;20451;-81
2021/10/11 06:18:19;;;;;;;80.35;34.40;;;;;;;;;;4974071;28;20521;-80
2021/10/11 06:20:44;;;;;;;77.18;33.08;;;;;;;;;;4973813;28;20465;-81
2021/10/11 06:23:12;;;;;;;61.95;27.33;;;;;;;;;;4970684;28;20042;-80
2021/10/11 06:25:38;;;;;;;52.17;24.70;;;;;;;;;;4990549;28;20030;-80
2021/10/11 06:28:03;;;;;;;46.15;22.80;;;;;;;;;;4975900;28;20040;-79
2021/10/11 06:30:29;;;;;;;50.10;22.48;;;;;;;;;;4975872;28;20116;-79
2021/10/11 06:32:54;;;;;;;49.08;22.30;;;;;;;;;;4990796;28;20213;-80
2021/10/11 06:35:20;;;;;;;48.88;20.67;;;;;;;;;;4990438;28;20022;-79
2021/10/11 06:37:45;;;;;;;48.35;20.08;;;;;;;;;;4976211;28;20034;-79
2021/10/11 06:40:10;;;;;;;48.65;19.77;;;;;;;;;;4991203;28;20109;-81
2021/10/11 06:42:36;;;;;;;43.40;19.63;;;;;;;;;;4993822;28;20628;-80
2021/10/11 06:45:02;;;;;;;44.00;20.58;;;;;;;;;;4993565;28;20427;-79
2021/10/11 06:47:29;;;;;;;45.75;19.25;;;;;;;;;;4973863;28;20125;-79
2021/10/11 06:49:55;;;;;;;48.10;20.50;;;;;;;;;;4990888;28;20026;-79
2021/10/11 06:52:20;;;;;;;43.10;20.80;;;;;;;;;;4994652;28;20473;-81
2021/10/11 06:54:46;;;;;;;46.65;19.92;;;;;;;;;;4993385;28;20482;-79
2021/10/11 06:57:13;;;;;;;46.00;19.33;;;;;;;;;;4995191;28;20534;-79
2021/10/11 06:59:38;;;;;;;44.28;19.80;;;;;;;;;;4992070;28;20030;-80
2021/10/11 07:02:04;;;;;;;44.20;19.92;;;;;;;;;;4978059;28;20106;-80
2021/10/11 07:04:30;;;;;;;50.08;21.67;;;;;;;;;;4973867;28;20813;-79
2021/10/11 07:06:56;;;;;;;52.17;22.17;;;;;;;;;;4991955;28;20474;-78
2021/10/11 07:09:21;;;;;;;47.40;21.60;;;;;;;;;;4978751;28;20037;-78
2021/10/11 07:11:50;;;;;;;51.67;23.75;;;;;;;;;;4993124;28;20411;-79
2021/10/11 07:14:18;;;;;;;56.20;24.05;;;;;;;;;;4998474;28;20022;-79
2021/10/11 07:16:45;;;;;;;55.20;25.08;;;;;;;;;;4992535;28;20502;-80
2021/10/11 07:19:11;;;;;;;50.72;25.05;;;;;;;;;;4993609;28;20034;-81
2021/10/11 07:21:36;;;;;;;51.22;23.77;;;;;;;;;;4995230;28;20027;-79
2021/10/11 07:24:03;;;;;;;55.33;24.95;;;;;;;;;;4997808;28;20031;-79
2021/10/11 07:26:29;;;;;;;52.38;24.48;;;;;;;;;;4989626;28;20362;-78
2021/10/11 07:28:54;;;;;;;57.28;24.50;;;;;;;;;;4974303;28;20113;-79
2021/10/11 07:31:19;;;;;;;53.10;24.48;;;;;;;;;;4993523;28;20117;-79
2021/10/11 07:33:45;;;;;;;57.38;27.23;;;;;;;;;;4975878;28;20095;-80
2021/10/11 07:36:10;;;;;;;52.35;25.02;;;;;;;;;;4995566;28;20026;-80
2021/10/11 07:38:36;;;;;;;62.58;26.17;;;;;;;;;;4982807;28;20034;-82
2021/10/11 07:41:01;;;;;;;53.78;25.67;;;;;;;;;;4995608;28;20030;-80
2021/10/11 07:43:27;;;;;;;56.45;25.05;;;;;;;;;;4989653;28;20100;-79
2021/10/11 07:45:52;;;;;;;55.10;24.75;;;;;;;;;;4975711;28;21110;-80
2021/10/11 07:48:18;;;;;;;52.45;24.77;;;;;;;;;;4971538;28;20036;-80
2021/10/11 07:50:43;;;;;;;50.10;23.60;;;;;;;;;;4990740;28;20033;-81
2021/10/11 07:53:09;;;;;;;49.08;24.10;;;;;;;;;;4990576;28;20037;-80
2021/10/11 07:55:34;;;;;;;48.83;22.58;;;;;;;;;;4975903;28;20362;-80
2021/10/11 07:58:00;;;;;;;47.58;21.48;;;;;;;;;;4991794;28;20397;-79
2021/10/11 08:00:26;;;;;;;48.58;23.50;;;;;;;;;;4992312;28;20023;-79
2021/10/11 08:02:51;;;;;;;55.67;24.13;;;;;;;;;;4992933;28;20026;-81
2021/10/11 08:05:17;;;;;;;49.13;23.27;;;;;;;;;;4988946;28;20203;-81
2021/10/11 08:07:43;;;;;;;55.65;24.67;;;;;;;;;;4978979;28;20313;-80
2021/10/11 08:10:10;;;;;;;56.00;25.42;;;;;;;;;;4996190;28;20876;-79
2021/10/11 08:12:36;;;;;;;51.70;25.13;;;;;;;;;;4977459;28;20689;-82
2021/10/11 08:15:01;;;;;;;49.13;23.13;;;;;;;;;;4995119;28;20097;-81
2021/10/11 08:17:27;;;;;;;52.97;23.35;;;;;;;;;;4976888;28;20032;-80
2021/10/11 08:19:55;;;;;;;44.50;22.48;;;;;;;;;;4977532;28;20125;-80
2021/10/11 08:22:21;;;;;;;48.08;22.83;;;;;;;;;;4994565;28;20022;-81
2021/10/11 08:24:51;;;;;;;42.47;19.33;;;;;;;;;;4980497;28;20029;-81
2021/10/11 08:27:17;;;;;;;40.42;20.95;;;;;;;;;;4995379;28;20034;-82
2021/10/11 08:29:53;;;;;;;47.00;23.38;;;;;;;;;;4978081;28;20034;-82
2021/10/11 08:32:24;;;;;;;44.38;21.77;;;;;;;;;;4978238;28;20057;-80
2021/10/11 08:34:51;;;;;;;47.35;22.70;;;;;;;;;;4981931;28;20585;-80
2021/10/11 08:37:16;;;;;;;45.33;21.70;;;;;;;;;;5001167;28;20049;-81
2021/10/11 08:39:42;;;;;;;42.47;21.50;;;;;;;;;;4998344;28;20034;-81
2021/10/11 08:42:09;;;;;;;41.25;21.02;;;;;;;;;;4997660;28;20474;-80
2021/10/11 08:44:35;;;;;;;46.53;23.92;;;;;;;;;;4997428;28;20129;-81
2021/10/11 08:47:02;;;;;;;51.70;25.50;;;;;;;;;;4992101;28;20069;-82
2021/10/11 08:49:28;;;;;;;47.97;23.58;;;;;;;;;;4978997;28;20041;-80
2021/10/11 08:51:54;;;;;;;44.65;22.15;;;;;;;;;;5001428;28;20031;-80
2021/10/11 08:54:20;;;;;;;42.38;22.33;;;;;;;;;;4981122;28;20032;-81
2021/10/11 08:56:45;;;;;;;43.92;22.63;;;;;;;;;;4980589;28;20393;-80
2021/10/11 08:59:12;;;;;;;46.38;20.10;;;;;;;;;;4995731;28;20032;-79
2021/10/11 09:01:38;;;;;;;44.60;21.67;;;;;;;;;;4997882;28;20041;-80
2021/10/11 09:04:18;;;;;;;45.28;22.80;;;;;;;;;;4993784;28;20039;-79
2021/10/11 09:07:06;;;;;;;51.25;24.35;;;;;;;;;;4978420;28;20117;-80
2021/10/11 09:09:53;;;;;;;44.35;22.77;;;;;;;;;;4981014;28;20370;-79
2021/10/11 09:12:23;;;;;;;45.90;22.95;;;;;;;;;;4997503;28;20053;-79
2021/10/11 09:15:09;;;;;;;47.55;22.00;;;;;;;;;;4997038;28;20026;-80
2021/10/11 09:17:38;;;;;;;42.65;22.60;;;;;;;;;;4990598;28;20036;-80
2021/10/11 09:20:13;;;;;;;45.67;22.65;;;;;;;;;;5001741;28;20386;-79
2021/10/11 09:22:40;;;;;;;40.63;20.45;;;;;;;;;;4996769;28;20064;-79
2021/10/11 09:25:06;;;;;;;34.60;18.08;;;;;;;;;;4998141;28;20034;-80
2021/10/11 09:27:51;;;;;;;37.92;19.67;;;;;;;;;;5000646;28;20035;-78
2021/10/11 09:30:19;;;;;;;43.50;19.27;;;;;;;;;;4982828;28;20112;-80
2021/10/11 09:32:46;;;;;;;37.30;20.08;;;;;;;;;;4979082;28;20038;-78
2021/10/11 09:35:11;;;;;;;38.65;19.88;;;;;;;;;;4981771;28;20022;-78
2021/10/11 09:37:39;;;;;;;35.70;20.20;;;;;;;;;;4983253;28;20030;-80
2021/10/11 09:40:09;;;;;;;30.83;15.55;;;;;;;;;;4996632;28;20432;-78
2021/10/11 09:42:35;;;;;;;34.67;16.63;;;;;;;;;;4993930;28;20114;-80
2021/10/11 09:45:04;;;;;;;32.47;15.32;;;;;;;;;;4996266;28;20042;-80
2021/10/11 09:50:09;;;;;;;30.65;17.10;;;;;;;;;;4993543;28;20042;-79
2021/10/11 09:52:41;;;;;;;33.88;16.20;;;;;;;;;;4994734;28;20038;-79
2021/10/11 09:55:13;;;;;;;28.20;15.55;;;;;;;;;;4996337;28;20023;-79
2021/10/11 09:57:40;;;;;;;32.03;15.55;;;;;;;;;;4993671;28;20042;-78
2021/10/11 10:00:11;;;;;;;30.27;15.82;;;;;;;;;;4994438;28;20120;-79
2021/10/11 10:02:37;;;;;;;30.67;16.15;;;;;;;;;;4996485;28;20346;-79
2021/10/11 10:05:06;;;;;;;29.20;14.90;;;;;;;;;;4991329;28;20023;-79
2021/10/11 10:07:34;;;;;;;28.58;15.00;;;;;;;;;;4975524;28;20478;-78
2021/10/11 10:10:05;;;;;;;25.30;13.55;;;;;;;;;;4978207;28;20379;-78
2021/10/11 10:12:31;;;;;;;27.85;14.88;;;;;;;;;;4979063;28;20454;-79
2021/10/11 10:14:59;;;;;;;29.95;15.10;;;;;;;;;;4992436;28;20022;-80
2021/10/11 10:17:34;;;;;;;27.15;15.23;;;;;;;;;;4991927;28;20032;-79
2021/10/11 10:20:18;;;;;;;27.80;14.88;;;;;;;;;;4995031;28;20044;-79
2021/10/11 10:22:45;;;;;;;27.45;15.20;;;;;;;;;;4993097;28;20513;-79
2021/10/11 10:25:15;;;;;;;25.25;14.45;;;;;;;;;;4974282;28;20106;-80
2021/10/11 10:27:41;;;;;;;29.05;15.07;;;;;;;;;;4993514;28;20058;-79
2021/10/11 10:30:26;;;;;;;26.05;14.73;;;;;;;;;;4975226;28;20049;-80
2021/10/11 10:33:00;;;;;;;29.95;15.57;;;;;;;;;;4993822;28;20096;-79
2021/10/11 10:35:28;;;;;;;30.50;16.02;;;;;;;;;;4991580;28;20038;-79
2021/10/11 10:37:55;;;;;;;32.40;16.30;;;;;;;;;;4995302;28;20029;-79
2021/10/11 10:40:26;;;;;;;28.35;16.08;;;;;;;;;;4998830;28;20029;-80
2021/10/11 10:43:12;;;;;;;27.10;15.38;;;;;;;;;;4991666;28;20497;-79
2021/10/11 10:45:39;;;;;;;27.02;14.88;;;;;;;;;;4991939;28;20042;-81
2021/10/11 10:48:25;;;;;;;26.70;15.55;;;;;;;;;;4976548;28;20050;-80
2021/10/11 10:51:02;;;;;;;29.88;16.00;;;;;;;;;;4976311;28;20023;-81
2021/10/11 10:53:29;;;;;;;28.15;16.05;;;;;;;;;;4993585;28;20107;-80
2021/10/11 10:55:55;;;;;;;29.90;16.02;;;;;;;;;;4981020;28;20024;-80
2021/10/11 10:58:23;;;;;;;29.60;15.50;;;;;;;;;;4976507;28;20105;-79
2021/10/11 11:00:49;;;;;;;27.33;15.32;;;;;;;;;;4992394;28;20030;-80
2021/10/11 11:03:17;;;;;;;26.92;15.30;;;;;;;;;;4991474;28;20034;-79
2021/10/11 11:05:47;;;;;;;28.27;15.15;;;;;;;;;;4995625;28;20121;-79
2021/10/11 11:08:18;;;;;;;31.98;15.98;;;;;;;;;;4990468;28;20060;-80
2021/10/11 11:10:46;;;;;;;24.52;15.38;;;;;;;;;;4990498;28;20118;-81
2021/10/11 11:13:16;;;;;;;25.25;15.65;;;;;;;;;;4977210;28;20026;-80
2021/10/11 11:15:47;;;;;;;26.05;14.77;;;;;;;;;;4974953;28;20030;-80
2021/10/11 11:18:17;;;;;;;30.10;15.60;;;;;;;;;;4976393;28;20451;-80
2021/10/11 11:20:43;;;;;;;29.10;15.35;;;;;;;;;;4990494;28;20041;-81
2021/10/11 11:23:21;;;;;;;28.73;16.08;;;;;;;;;;4976503;28;20049;-80
2021/10/11 11:25:55;;;;;;;24.58;15.60;;;;;;;;;;4991384;28;20108;-80
2021/10/11 11:28:27;;;;;;;27.27;15.77;;;;;;;;;;4991005;28;20032;-80
2021/10/11 11:30:55;;;;;;;23.30;15.05;;;;;;;;;;4993143;28;20044;-79
2021/10/11 11:33:25;;;;;;;23.00;14.48;;;;;;;;;;4991483;28;20486;-81
2021/10/11 11:35:56;;;;;;;22.50;13.88;;;;;;;;;;4976619;28;20023;-80
2021/10/11 11:38:27;;;;;;;26.20;15.00;;;;;;;;;;4992382;28;20089;-80
2021/10/11 11:40:58;;;;;;;26.90;14.85;;;;;;;;;;4994363;28;20061;-80
2021/10/11 11:43:26;;;;;;;26.25;14.60;;;;;;;;;;4978720;28;20127;-80
2021/10/11 11:45:54;;;;;;;25.63;14.20;;;;;;;;;;4991784;28;20053;-80
2021/10/11 11:48:26;;;;;;;24.80;14.40;;;;;;;;;;4992585;28;20077;-79
2021/10/11 11:50:58;;;;;;;23.67;13.40;;;;;;;;;;4997951;28;20521;-78
2021/10/11 11:53:25;;;;;;;23.92;13.82;;;;;;;;;;4993199;28;20367;-79
2021/10/11 11:55:56;;;;;;;25.75;13.85;;;;;;;;;;4992076;28;20057;-79
2021/10/11 11:58:27;;;;;;;22.45;13.23;;;;;;;;;;4994276;28;20045;-79
2021/10/11 12:00:58;;;;;;;32.28;14.10;;;;;;;;;;4995893;28;20022;-79
2021/10/11 12:03:26;;;;;;;24.35;13.55;;;;;;;;;;4998881;28;20029;-79
2021/10/11 12:05:54;;;;;;;23.98;14.13;;;;;;;;;;4993468;28;20026;-79
2021/10/11 12:08:20;;;;;;;23.90;14.85;;;;;;;;;;4995573;28;20026;-77
2021/10/11 12:10:58;;;;;;;22.83;13.68;;;;;;;;;;4993699;28;20022;-79
2021/10/11 12:13:28;;;;;;;23.67;13.63;;;;;;;;;;4990360;28;20041;-79
2021/10/11 12:16:08;;;;;;;22.10;12.98;;;;;;;;;;4992555;28;20029;-78
2021/10/11 12:18:42;;;;;;;21.35;12.75;;;;;;;;;;4997085;28;20034;-79
2021/10/11 12:21:22;;;;;;;24.70;14.00;;;;;;;;;;4995442;28;20029;-78
2021/10/11 12:23:49;;;;;;;25.02;14.18;;;;;;;;;;4996457;28;20037;-79
2021/10/11 12:26:17;;;;;;;21.15;13.45;;;;;;;;;;4984721;28;20030;-78
2021/10/11 12:28:53;;;;;;;23.55;14.00;;;;;;;;;;4992141;28;20482;-78
2021/10/11 12:31:24;;;;;;;23.92;14.25;;;;;;;;;;4997170;28;20113;-79
2021/10/11 12:33:51;;;;;;;22.48;13.68;;;;;;;;;;4997578;28;20026;-78
2021/10/11 12:36:17;;;;;;;22.27;14.45;;;;;;;;;;5000671;28;20453;-78
2021/10/11 12:38:42;;;;;;;20.58;13.60;;;;;;;;;;4996511;28;20461;-78
2021/10/11 12:41:16;;;;;;;22.38;14.85;;;;;;;;;;4997123;28;20065;-78
2021/10/11 12:44:00;;;;;;;24.38;14.45;;;;;;;;;;4980676;28;20026;-79
2021/10/11 12:46:26;;;;;;;21.65;13.50;;;;;;;;;;4996254;28;20027;-78
2021/10/11 12:48:59;;;;;;;23.48;13.77;;;;;;;;;;4981155;28;20030;-77
2021/10/11 12:51:28;;;;;;;25.60;15.23;;;;;;;;;;4996830;28;20030;-77
2021/10/11 12:54:27;;;;;;;25.75;15.23;;;;;;;;;;4994791;28;20042;-77
2021/10/11 12:56:53;;;;;;;;;;;;;;;;;;4984483;28;20092;-79
2021/10/11 12:59:20;;;;;;;25.08;14.90;;;;;;;;;;4992633;28;20364;-78
2021/10/11 13:01:49;;;;;;;22.08;14.27;;;;;;;;;;4993986;28;20046;-77
2021/10/11 13:04:21;;;;;;;23.00;14.43;;;;;;;;;;4993870;28;20022;-78
2021/10/11 13:06:48;;;;;;;26.05;14.75;;;;;;;;;;4993922;28;20034;-78
2021/10/11 13:09:16;;;;;;;27.73;16.30;;;;;;;;;;4992899;28;20053;-78
2021/10/11 13:11:43;;;;;;;29.90;17.38;;;;;;;;;;4997899;28;20043;-78
2021/10/11 13:14:11;;;;;;;28.13;17.52;;;;;;;;;;4992084;28;20029;-77
2021/10/11 13:16:38;;;;;;;24.05;15.55;;;;;;;;;;4990369;28;20182;-80
2021/10/11 13:19:07;;;;;;;24.88;16.50;;;;;;;;;;4990294;28;20065;-79
2021/10/11 13:21:34;;;;;;;26.42;16.67;;;;;;;;;;4991254;28;20101;-80
2021/10/11 13:24:00;;;;;;;28.67;17.60;;;;;;;;;;4975115;28;20062;-79
2021/10/11 13:26:25;;;;;;;31.35;16.75;;;;;;;;;;4994853;28;20514;-83
2021/10/11 13:29:02;;;;;;;25.90;15.63;;;;;;;;;;4996746;28;20101;-84
2021/10/11 14:28:16;;;;;;;40.45;20.75;;;;;;;;;;4998030;28;20046;-82
2021/10/11 16:00:02;;;;;;;71.97;32.20;;;;;;;;;;4998748;28;20098;-80
2021/10/11 16:04:57;;;;;;;63.72;31.15;;;;;;;;;;4995348;28;20041;-80
2021/10/11 16:07:23;;;;;;;66.65;31.80;;;;;;;;;;4994927;28;20022;-80
2021/10/11 16:09:48;;;;;;;63.58;29.67;;;;;;;;;;4995807;28;20657;-82
2021/10/11 16:12:14;;;;;;;60.22;29.70;;;;;;;;;;4992264;28;20374;-81
2021/10/11 16:14:39;;;;;;;67.32;30.42;;;;;;;;;;4974694;28;20502;-81
2021/10/11 16:17:04;;;;;;;64.68;31.10;;;;;;;;;;4977881;28;20379;-81
2021/10/11 16:19:30;;;;;;;64.07;30.92;;;;;;;;;;4984237;28;20022;-81
2021/10/11 16:21:56;;;;;;;61.22;31.13;;;;;;;;;;4996165;28;20382;-81
2021/10/11 16:24:24;;;;;;;60.67;29.45;;;;;;;;;;4976556;28;20030;-81
2021/10/11 16:26:49;;;;;;;60.60;30.50;;;;;;;;;;4993870;28;20026;-82
2021/10/11 16:29:18;;;;;;;66.63;30.83;;;;;;;;;;4994535;28;20113;-81
2021/10/11 16:31:44;;;;;;;60.75;29.00;;;;;;;;;;4976821;28;20022;-81
2021/10/11 16:34:10;;;;;;;65.07;31.98;;;;;;;;;;4998253;28;20037;-82
2021/10/11 16:36:38;;;;;;;65.70;30.25;;;;;;;;;;4994582;28;20042;-81
2021/10/11 16:39:04;;;;;;;75.82;33.75;;;;;;;;;;4995995;28;20030;-81
2021/10/11 16:41:30;;;;;;;76.85;35.42;;;;;;;;;;4994151;28;20105;-83
2021/10/11 16:43:58;;;;;;;72.53;33.13;;;;;;;;;;4981471;28;20022;-81
2021/10/11 16:46:23;;;;;;;74.05;33.35;;;;;;;;;;4975707;28;20034;-81
2021/10/11 16:48:49;;;;;;;68.35;31.08;;;;;;;;;;4992171;28;20125;-81
2021/10/11 16:51:16;;;;;;;65.15;30.65;;;;;;;;;;4999686;28;20038;-83